Time;durP1;ratioP1;P1;durP2;ratioP2;P2;SDS_P1;SDS_P2;PMS_P1;PMS_P2;Temp;Humidity;BMP_temperature;BMP_pressure;BME280_temperature;BME280_humidity;BME280_pressure;Samples;Min_cycle;Max_cycle;Signal;HPM_P1;HPM_P2
2022/09/26 00:01:17;;;;;;;7.13;1.90;;;11.60;99.90;;;;;;5018826;28;20085;-71
2022/09/26 00:03:45;;;;;;;7.25;1.90;;;11.60;99.90;;;;;;4996936;28;20125;-71
2022/09/26 00:06:12;;;;;;;6.68;1.67;;;11.60;99.90;;;;;;5016937;28;20048;-71
2022/09/26 00:08:38;;;;;;;6.60;1.90;;;11.60;99.90;;;;;;5014058;28;20040;-71
2022/09/26 00:11:07;;;;;;;6.50;2.00;;;11.60;99.90;;;;;;4997242;28;20042;-71
2022/09/26 00:13:38;;;;;;;8.40;1.85;;;11.60;99.90;;;;;;5013569;28;20100;-71
2022/09/26 00:16:04;;;;;;;7.68;1.98;;;11.60;99.90;;;;;;5016366;28;20571;-71
2022/09/26 00:18:30;;;;;;;8.32;2.20;;;11.60;99.90;;;;;;5015875;28;20080;-71
2022/09/26 00:21:11;;;;;;;7.25;2.20;;;11.60;99.90;;;;;;5013817;28;20065;-71
2022/09/26 00:23:38;;;;;;;7.15;2.10;;;11.60;99.90;;;;;;5014299;28;20528;-72
2022/09/26 00:26:05;;;;;;;9.57;2.30;;;11.60;99.90;;;;;;5015320;28;20037;-71
2022/09/26 00:28:31;;;;;;;6.75;1.98;;;11.60;99.90;;;;;;5014136;28;20044;-70
2022/09/26 00:31:01;;;;;;;6.50;2.08;;;11.60;99.90;;;;;;5010736;28;20053;-70
2022/09/26 00:33:27;;;;;;;6.35;1.80;;;11.80;99.90;;;;;;5045535;28;20057;-70
2022/09/26 00:35:54;;;;;;;7.28;1.92;;;11.70;99.90;;;;;;5013390;28;20311;-71
2022/09/26 00:38:20;;;;;;;7.53;2.15;;;11.60;99.90;;;;;;5008392;28;20038;-71
2022/09/26 00:40:47;;;;;;;8.82;2.08;;;11.60;99.90;;;;;;5013604;28;20588;-71
2022/09/26 00:43:33;;;;;;;8.43;2.20;;;11.60;99.90;;;;;;5020382;28;20053;-71
2022/09/26 00:46:06;;;;;;;8.20;2.10;;;12.70;99.90;;;;;;5014319;28;20084;-71
2022/09/26 00:48:33;;;;;;;6.00;1.90;;;11.60;99.90;;;;;;5013356;28;20038;-71
2022/09/26 00:51:00;;;;;;;9.00;2.15;;;11.60;99.90;;;;;;5018406;28;20409;-71
2022/09/26 00:53:32;;;;;;;6.35;2.00;;;11.60;99.90;;;;;;5010732;28;20053;-70
2022/09/26 00:56:05;;;;;;;6.07;1.95;;;11.70;99.90;;;;;;5011617;28;20519;-70
2022/09/26 00:59:00;;;;;;;6.68;1.92;;;11.70;99.90;;;;;;4994782;28;20337;-71
2022/09/26 01:01:27;;;;;;;6.00;1.90;;;11.90;99.90;;;;;;5008236;28;20083;-71
2022/09/26 01:03:53;;;;;;;6.07;1.95;;;11.60;99.90;;;;;;4984921;28;20053;-72
2022/09/26 01:06:20;;;;;;;7.50;2.03;;;11.70;99.90;;;;;;5001161;28;20423;-71
2022/09/26 01:09:00;;;;;;;9.98;2.00;;;11.70;99.90;;;;;;5008424;28;20045;-71
2022/09/26 01:11:28;;;;;;;6.47;2.08;;;11.60;99.90;;;;;;4992083;28;20079;-70
2022/09/26 01:13:55;;;;;;;8.82;2.25;;;11.70;99.90;;;;;;5015306;28;20496;-70
2022/09/26 01:16:21;;;;;;;6.25;2.47;;;11.60;99.90;;;;;;5020937;28;20037;-71
2022/09/26 01:18:47;;;;;;;7.07;2.20;;;11.70;99.90;;;;;;5014199;28;20038;-71
2022/09/26 01:21:39;;;;;;;8.07;2.00;;;11.60;99.90;;;;;;5010543;28;20597;-72
2022/09/26 01:24:34;;;;;;;8.70;2.35;;;11.60;99.90;;;;;;4994726;28;20034;-71
2022/09/26 01:27:33;;;;;;;8.70;2.20;;;11.60;99.90;;;;;;5013047;28;20050;-71
2022/09/26 01:30:08;;;;;;;6.97;2.10;;;11.70;99.90;;;;;;4995927;28;20080;-71
2022/09/26 01:33:09;;;;;;;11.23;2.60;;;12.20;99.90;;;;;;4993975;28;20572;-72
2022/09/26 01:35:34;;;;;;;7.72;2.17;;;11.70;99.90;;;;;;5013116;28;20045;-71
2022/09/26 01:38:15;;;;;;;7.75;2.47;;;11.60;99.90;;;;;;5015030;28;20037;-71
2022/09/26 01:40:44;;;;;;;10.57;2.47;;;11.60;99.90;;;;;;5015262;28;20045;-71
2022/09/26 01:43:41;;;;;;;7.68;2.30;;;11.60;99.90;;;;;;5006108;28;20046;-72
2022/09/26 01:46:39;;;;;;;7.22;2.20;;;11.60;99.90;;;;;;5009825;28;20042;-71
2022/09/26 01:49:11;;;;;;;10.35;2.47;;;11.60;99.90;;;;;;5015082;28;20048;-70
2022/09/26 01:52:04;;;;;;;7.85;2.60;;;11.60;99.90;;;;;;4993269;28;20037;-71
2022/09/26 01:54:53;;;;;;;11.73;2.75;;;11.60;99.90;;;;;;4959516;28;20037;-71
2022/09/26 01:57:27;;;;;;;10.00;2.97;;;11.60;99.90;;;;;;5012007;28;20111;-71
2022/09/26 01:59:59;;;;;;;7.25;2.60;;;11.60;99.90;;;;;;4995407;28;20058;-71
2022/09/26 02:02:29;;;;;;;7.07;2.28;;;12.30;99.90;;;;;;5011224;28;20137;-71
2022/09/26 02:05:01;;;;;;;7.18;2.50;;;11.70;99.90;;;;;;5011454;28;20034;-71
2022/09/26 02:07:42;;;;;;;7.40;2.20;;;11.70;99.90;;;;;;4994193;28;20057;-71
2022/09/26 02:10:43;;;;;;;11.50;2.55;;;12.30;99.90;;;;;;5015374;28;20049;-71
2022/09/26 02:13:23;;;;;;;7.68;2.47;;;11.70;99.90;;;;;;4968576;28;20048;-71
2022/09/26 02:15:55;;;;;;;8.48;2.53;;;11.60;99.90;;;;;;5001354;28;20041;-72
2022/09/26 02:18:30;;;;;;;9.02;2.53;;;11.60;99.90;;;;;;4992341;28;20543;-72
2022/09/26 02:21:02;;;;;;;9.10;2.58;;;11.60;99.90;;;;;;5011366;28;20097;-70
2022/09/26 02:23:28;;;;;;;9.83;2.70;;;11.60;99.90;;;;;;5013946;28;20480;-70
2022/09/26 02:25:54;;;;;;;8.63;2.55;;;11.60;99.90;;;;;;5016769;28;20586;-71
2022/09/26 02:28:20;;;;;;;8.02;3.05;;;11.60;99.90;;;;;;4993981;28;20084;-72
2022/09/26 02:30:48;;;;;;;8.32;2.60;;;11.60;99.90;;;;;;5013975;28;20045;-71
2022/09/26 02:33:15;;;;;;;7.95;2.35;;;11.60;99.90;;;;;;5010498;28;20663;-71
2022/09/26 02:35:54;;;;;;;8.40;2.30;;;11.60;99.90;;;;;;4993983;28;20095;-71
2022/09/26 02:38:21;;;;;;;7.38;2.63;;;11.60;99.90;;;;;;4990980;28;20038;-72
2022/09/26 02:41:13;;;;;;;9.90;2.80;;;11.60;99.90;;;;;;4987852;28;20066;-72
2022/09/26 02:44:10;;;;;;;12.82;3.05;;;11.60;99.90;;;;;;5004993;28;20184;-73
2022/09/26 02:46:50;;;;;;;11.50;2.85;;;11.50;99.90;;;;;;5013168;28;20045;-73
2022/09/26 02:49:37;;;;;;;9.10;3.20;;;11.50;99.90;;;;;;4994377;28;20698;-73
2022/09/26 02:52:18;;;;;;;11.75;2.78;;;11.50;99.90;;;;;;4992704;28;20119;-74
2022/09/26 02:54:55;;;;;;;7.80;2.60;;;11.40;99.90;;;;;;5007787;28;20048;-74
2022/09/26 02:57:43;;;;;;;9.88;3.08;;;11.40;99.90;;;;;;5008121;28;20048;-73
2022/09/26 03:00:23;;;;;;;9.43;2.97;;;11.40;99.90;;;;;;5012886;28;20474;-72
2022/09/26 03:03:12;;;;;;;11.00;2.90;;;11.40;99.90;;;;;;5012274;28;20053;-73
2022/09/26 03:05:41;;;;;;;8.73;3.00;;;11.40;99.90;;;;;;5013272;28;20112;-73
2022/09/26 03:08:15;;;;;;;10.07;3.10;;;11.40;99.90;;;;;;5010243;28;20034;-73
2022/09/26 03:10:42;;;;;;;9.05;2.90;;;11.30;99.90;;;;;;5008723;28;20076;-73
2022/09/26 03:13:13;;;;;;;9.93;3.05;;;11.30;99.90;;;;;;5000205;28;20492;-73
2022/09/26 03:15:44;;;;;;;12.25;3.40;;;11.30;99.90;;;;;;5016108;28;20451;-73
2022/09/26 03:18:15;;;;;;;13.27;3.50;;;11.30;99.90;;;;;;5015686;28;20034;-72
2022/09/26 03:20:41;;;;;;;8.68;3.15;;;11.30;99.90;;;;;;5009208;28;20115;-72
2022/09/26 03:23:06;;;;;;;10.98;3.10;;;11.30;99.90;;;;;;4993201;28;20488;-72
2022/09/26 03:25:32;;;;;;;10.75;3.45;;;11.30;99.90;;;;;;5014023;28;20046;-73
2022/09/26 03:28:01;;;;;;;13.10;3.58;;;11.30;99.90;;;;;;5001471;28;20124;-72
2022/09/26 03:30:30;;;;;;;10.23;3.45;;;11.30;99.90;;;;;;5001780;28;20053;-72
2022/09/26 03:32:56;;;;;;;9.70;3.70;;;11.20;99.90;;;;;;5018931;28;20578;-72
2022/09/26 03:35:22;;;;;;;14.88;3.92;;;11.20;99.90;;;;;;4988301;28;20038;-72
2022/09/26 03:37:48;;;;;;;12.30;4.03;;;11.20;99.90;;;;;;4997040;28;20034;-72
2022/09/26 03:40:14;;;;;;;10.25;3.85;;;11.30;99.90;;;;;;5017944;28;20045;-73
2022/09/26 03:42:40;;;;;;;10.95;3.65;;;11.30;99.90;;;;;;4995983;28;20052;-73
2022/09/26 03:45:09;;;;;;;9.85;3.55;;;11.30;99.90;;;;;;5007704;28;20443;-74
2022/09/26 03:47:37;;;;;;;10.23;4.00;;;11.30;99.90;;;;;;5012224;28;20045;-73
2022/09/26 03:50:04;;;;;;;10.65;4.00;;;11.30;99.90;;;;;;4995958;28;20042;-74
2022/09/26 03:52:30;;;;;;;10.18;3.88;;;11.30;99.90;;;;;;5012965;28;20120;-73
2022/09/26 03:54:56;;;;;;;10.23;3.90;;;11.30;99.90;;;;;;5010477;28;20118;-74
2022/09/26 03:57:22;;;;;;;10.63;3.90;;;11.30;99.90;;;;;;4987665;28;20078;-73
2022/09/26 03:59:51;;;;;;;11.32;4.60;;;11.30;99.90;;;;;;5016468;28;20046;-73
2022/09/26 04:02:18;;;;;;;12.02;4.68;;;11.30;99.90;;;;;;4983726;28;20041;-72
2022/09/26 04:04:44;;;;;;;10.98;4.18;;;11.30;99.90;;;;;;5016107;28;20334;-72
2022/09/26 04:07:10;;;;;;;10.10;4.80;;;11.30;99.90;;;;;;4999741;28;20322;-73
2022/09/26 04:09:35;;;;;;;11.38;4.85;;;11.20;99.90;;;;;;5014932;28;20046;-73
2022/09/26 04:12:01;;;;;;;14.90;4.95;;;11.30;99.90;;;;;;4995965;28;20041;-73
2022/09/26 04:14:27;;;;;;;12.40;4.88;;;11.30;99.90;;;;;;5017920;28;20037;-72
2022/09/26 04:16:53;;;;;;;10.27;4.90;;;11.20;99.90;;;;;;5017261;28;20333;-71
2022/09/26 04:19:18;;;;;;;10.02;4.88;;;11.20;99.90;;;;;;5004890;28;20423;-71
2022/09/26 04:21:44;;;;;;;11.55;4.50;;;11.40;99.90;;;;;;4989778;28;20401;-72
2022/09/26 04:24:16;;;;;;;12.95;5.75;;;11.20;99.90;;;;;;5004129;28;20053;-72
2022/09/26 04:26:43;;;;;;;12.55;4.85;;;11.20;99.90;;;;;;5016360;28;20036;-71
2022/09/26 04:29:12;;;;;;;13.88;5.00;;;11.20;99.90;;;;;;4994316;28;20041;-72
2022/09/26 04:31:39;;;;;;;12.43;4.53;;;11.20;99.90;;;;;;5011691;28;20049;-71
2022/09/26 04:34:07;;;;;;;12.77;4.78;;;11.30;99.90;;;;;;5002458;28;20042;-72
2022/09/26 04:36:33;;;;;;;11.35;4.82;;;11.20;99.90;;;;;;5015765;28;20544;-72
2022/09/26 04:38:59;;;;;;;11.07;4.53;;;11.20;99.90;;;;;;5012678;28;20042;-72
2022/09/26 04:41:26;;;;;;;11.00;4.97;;;11.20;99.90;;;;;;4998533;28;20198;-72
2022/09/26 04:43:56;;;;;;;13.48;5.13;;;11.20;99.90;;;;;;5012107;28;20098;-71
2022/09/26 04:46:24;;;;;;;10.93;4.57;;;11.80;99.90;;;;;;4996394;28;20101;-71
2022/09/26 04:48:52;;;;;;;12.48;4.50;;;11.60;99.90;;;;;;5010225;28;20518;-71
2022/09/26 04:51:19;;;;;;;9.32;4.18;;;11.20;99.90;;;;;;4988397;28;20046;-71
2022/09/26 04:53:45;;;;;;;9.98;4.65;;;11.20;99.90;;;;;;5015531;28;20400;-72
2022/09/26 04:56:12;;;;;;;10.73;4.57;;;11.20;99.90;;;;;;5012909;28;20041;-71
2022/09/26 04:58:40;;;;;;;10.00;4.38;;;11.20;99.90;;;;;;4993957;28;20531;-72
2022/09/26 05:01:15;;;;;;;11.10;4.47;;;11.20;99.90;;;;;;5012482;28;20103;-72
2022/09/26 05:03:41;;;;;;;9.68;4.22;;;11.20;99.90;;;;;;5014427;28;20049;-71
2022/09/26 05:06:08;;;;;;;12.35;4.95;;;11.20;99.90;;;;;;5018127;28;20045;-72
2022/09/26 05:08:39;;;;;;;10.32;4.63;;;11.20;99.90;;;;;;4993177;28;20073;-73
2022/09/26 05:11:07;;;;;;;10.85;4.80;;;11.20;99.90;;;;;;5014275;28;20105;-72
2022/09/26 05:13:33;;;;;;;10.50;4.80;;;11.20;99.90;;;;;;5009082;28;20030;-73
2022/09/26 05:16:00;;;;;;;9.95;4.85;;;11.20;99.90;;;;;;4998771;28;20459;-72
2022/09/26 05:18:27;;;;;;;13.85;5.15;;;11.20;99.90;;;;;;5004053;28;20096;-72
2022/09/26 05:20:54;;;;;;;11.40;4.90;;;11.20;99.90;;;;;;5010114;28;20116;-73
2022/09/26 05:26:45;;;;;;;11.25;5.35;;;10.70;99.90;;;;;;5010283;28;20096;-73
2022/09/26 05:29:11;;;;;;;11.45;5.20;;;11.20;99.90;;;;;;5014502;28;20052;-73
2022/09/26 05:31:37;;;;;;;11.40;5.38;;;11.10;99.90;;;;;;4999924;28;20037;-72
2022/09/26 05:34:04;;;;;;;11.80;5.03;;;11.10;99.90;;;;;;5009289;28;20099;-73
2022/09/26 05:36:30;;;;;;;11.77;5.55;;;11.10;99.90;;;;;;4997071;28;20038;-74
2022/09/26 05:38:56;;;;;;;10.75;4.95;;;11.20;99.90;;;;;;5014236;28;20564;-73
2022/09/26 05:41:21;;;;;;;13.55;5.60;;;11.10;99.90;;;;;;5009238;28;20172;-72
2022/09/26 05:43:50;;;;;;;9.65;4.90;;;11.10;99.90;;;;;;5011154;28;20041;-73
2022/09/26 05:46:16;;;;;;;10.50;5.13;;;11.10;99.90;;;;;;5000602;28;20045;-74
2022/09/26 05:48:42;;;;;;;13.07;5.70;;;11.10;99.90;;;;;;5012619;28;20065;-73
2022/09/26 05:51:11;;;;;;;12.40;5.53;;;11.10;99.90;;;;;;5032873;28;20049;-73
2022/09/26 05:53:42;;;;;;;10.13;5.30;;;11.10;99.90;;;;;;5016616;28;20050;-73
2022/09/26 05:56:12;;;;;;;10.80;5.55;;;11.10;99.90;;;;;;5020916;28;20212;-72
2022/09/26 05:58:40;;;;;;;11.38;5.60;;;11.10;99.90;;;;;;5004768;28;20484;-73
2022/09/26 06:01:11;;;;;;;13.40;5.30;;;11.10;99.90;;;;;;5012405;28;20061;-73
2022/09/26 06:03:40;;;;;;;12.68;5.22;;;11.10;99.90;;;;;;4998051;28;20048;-73
2022/09/26 06:06:09;;;;;;;11.35;5.40;;;11.10;99.90;;;;;;5012431;28;20144;-73
2022/09/26 06:08:36;;;;;;;10.15;5.47;;;11.10;99.90;;;;;;5016845;28;20052;-72
2022/09/26 06:11:04;;;;;;;12.65;5.78;;;11.10;99.90;;;;;;4987036;28;20034;-72
2022/09/26 06:13:31;;;;;;;10.00;5.30;;;11.20;99.90;;;;;;4990948;28;20049;-72
2022/09/26 06:16:05;;;;;;;11.38;5.65;;;11.20;99.90;;;;;;5012617;28;20034;-72
2022/09/26 06:18:35;;;;;;;11.35;5.60;;;11.10;99.90;;;;;;5011783;28;20117;-72
2022/09/26 06:21:06;;;;;;;10.48;5.00;;;11.10;99.90;;;;;;5006789;28;20132;-72
2022/09/26 06:23:33;;;;;;;11.10;5.22;;;11.10;99.90;;;;;;5016746;28;20033;-73
2022/09/26 06:25:59;;;;;;;11.88;5.25;;;11.30;99.90;;;;;;5023233;28;20045;-73
2022/09/26 06:28:26;;;;;;;10.77;4.75;;;11.10;99.90;;;;;;5011449;28;20037;-72
2022/09/26 06:30:53;;;;;;;12.23;5.45;;;10.90;99.90;;;;;;5023960;28;20101;-72
2022/09/26 06:33:19;;;;;;;10.68;5.22;;;11.20;99.90;;;;;;5024768;28;20732;-72
2022/09/26 06:35:45;;;;;;;10.13;4.95;;;11.10;99.90;;;;;;5016759;28;20045;-73
2022/09/26 06:38:11;;;;;;;11.95;5.45;;;12.00;99.90;;;;;;5020641;28;20680;-73
2022/09/26 06:40:37;;;;;;;10.57;5.40;;;11.00;99.90;;;;;;5022959;28;20045;-73
2022/09/26 06:43:05;;;;;;;12.57;5.00;;;11.10;99.90;;;;;;5013579;28;20060;-74
2022/09/26 06:45:31;;;;;;;12.48;5.20;;;11.10;99.90;;;;;;4990339;28;20041;-72
2022/09/26 06:48:01;;;;;;;11.63;4.88;;;11.10;99.90;;;;;;4982689;28;20030;-72
2022/09/26 06:50:26;;;;;;;11.13;4.43;;;11.00;99.90;;;;;;5020683;28;20045;-72
2022/09/26 06:52:52;;;;;;;11.52;5.13;;;11.00;99.90;;;;;;5007578;28;20037;-73
2022/09/26 06:55:18;;;;;;;10.13;4.82;;;11.00;99.90;;;;;;5024446;28;20496;-73
2022/09/26 06:57:44;;;;;;;11.65;4.82;;;11.00;99.90;;;;;;5010741;28;20129;-72
2022/09/26 07:00:13;;;;;;;11.60;4.88;;;11.00;99.90;;;;;;5030450;28;20054;-73
2022/09/26 07:02:49;;;;;;;11.60;4.85;;;11.00;99.90;;;;;;5013531;28;20046;-72
2022/09/26 07:05:15;;;;;;;11.43;5.03;;;11.00;99.90;;;;;;5028117;28;20077;-73
2022/09/26 07:07:44;;;;;;;14.25;5.30;;;11.00;99.90;;;;;;4988479;28;20076;-71
2022/09/26 07:10:10;;;;;;;10.88;4.60;;;11.00;99.90;;;;;;5013893;28;20037;-72
2022/09/26 07:12:39;;;;;;;11.77;4.90;;;11.00;99.90;;;;;;4998155;28;20073;-73
2022/09/26 07:15:06;;;;;;;10.48;4.82;;;11.00;99.90;;;;;;5009506;28;20477;-73
2022/09/26 07:17:32;;;;;;;9.73;4.22;;;11.80;99.90;;;;;;5022574;28;20067;-73
2022/09/26 07:19:58;;;;;;;11.50;4.35;;;11.00;99.90;;;;;;5019072;28;20037;-74
2022/09/26 07:22:24;;;;;;;11.63;4.78;;;11.00;99.90;;;;;;5012388;28;20041;-74
2022/09/26 07:24:49;;;;;;;9.63;4.75;;;11.00;99.90;;;;;;5002038;28;20400;-74
2022/09/26 07:27:16;;;;;;;10.32;4.90;;;11.10;99.90;;;;;;5027831;28;20099;-73
2022/09/26 07:29:46;;;;;;;9.95;4.60;;;11.10;99.90;;;;;;5030039;28;20111;-73
2022/09/26 07:32:12;;;;;;;8.90;4.25;;;11.10;99.90;;;;;;5027124;28;20397;-73
2022/09/26 08:25:52;;;;;;;10.15;3.95;;;11.40;99.90;;;;;;5991412;23;20145;-83
2022/09/26 08:28:18;;;;;;;10.95;3.65;;;11.40;99.90;;;;;;6009248;23;2103103;-84
2022/09/26 08:30:43;;;;;;;11.00;4.03;;;11.50;99.90;;;;;;6073527;23;20101;-84
2022/09/26 08:33:11;;;;;;;11.88;3.53;;;11.50;99.90;;;;;;6026907;23;20014;-86
2022/09/26 08:35:37;;;;;;;8.70;3.58;;;11.50;99.90;;;;;;6051912;23;20037;-86
2022/09/26 08:38:07;;;;;;;7.80;3.10;;;11.50;99.90;;;;;;6075220;23;20343;-85
2022/09/26 08:41:05;;;;;;;8.45;3.30;;;11.50;99.90;;;;;;6074851;23;20021;-85
2022/09/26 08:43:33;;;;;;;9.00;3.60;;;11.50;99.90;;;;;;6051746;23;20076;-86
2022/09/26 08:49:29;;;;;;;10.55;3.63;;;11.50;99.90;;;;;;6058317;23;20057;-85
2022/09/26 08:51:58;;;;;;;10.40;3.80;;;11.60;99.90;;;;;;6051329;23;20018;-84
2022/09/26 08:54:40;;;;;;;10.23;3.50;;;11.60;99.90;;;;;;6051821;23;20069;-86
2022/09/26 08:57:15;;;;;;;9.70;3.58;;;11.60;99.90;;;;;;6075592;23;20061;-90
2022/09/26 08:59:44;;;;;;;10.40;3.50;;;11.60;99.90;;;;;;6051299;23;20014;-87
2022/09/26 09:02:36;;;;;;;11.05;3.80;;;11.60;99.90;;;;;;6074565;23;20165;-89
2022/09/26 09:05:11;;;;;;;9.18;3.22;;;11.60;99.90;;;;;;6069108;23;20022;-85
2022/09/26 09:07:36;;;;;;;10.10;3.85;;;11.70;99.90;;;;;;6042965;23;20026;-84
2022/09/26 09:10:13;;;;;;;10.35;3.88;;;11.70;99.90;;;;;;6067432;23;20451;-84
2022/09/26 09:12:48;;;;;;;9.07;3.63;;;11.70;99.90;;;;;;6068779;23;20050;-84
2022/09/26 09:15:41;;;;;;;9.48;3.40;;;11.70;99.90;;;;;;6045062;23;20085;-84
2022/09/26 09:18:39;;;;;;;10.73;3.55;;;11.70;99.90;;;;;;6068119;23;20014;-85
2022/09/26 09:21:37;;;;;;;10.20;3.30;;;11.70;99.90;;;;;;6057240;23;20101;-84
2022/09/26 09:24:18;;;;;;;11.57;3.70;;;11.70;99.90;;;;;;6041275;23;20452;-83
2022/09/26 09:27:21;;;;;;;9.35;3.60;;;11.70;99.90;;;;;;6043621;23;20142;-85
2022/09/26 09:30:01;;;;;;;8.38;3.40;;;11.80;99.90;;;;;;6044961;23;20019;-84
2022/09/26 09:32:40;;;;;;;10.73;3.67;;;11.80;99.90;;;;;;6044093;23;20352;-85
2022/09/26 09:35:15;;;;;;;10.20;3.70;;;11.80;99.90;;;;;;6043629;23;20015;-86
2022/09/26 09:37:46;;;;;;;9.35;3.78;;;11.80;99.90;;;;;;6066451;23;20014;-86
2022/09/26 09:40:25;;;;;;;10.13;3.45;;;11.90;99.90;;;;;;6068012;23;20061;-86
2022/09/26 09:43:04;;;;;;;9.35;3.47;;;11.90;99.90;;;;;;6043766;23;20014;-86
2022/09/26 09:45:42;;;;;;;9.70;3.60;;;11.90;99.90;;;;;;6045180;23;20011;-87
2022/09/26 09:48:12;;;;;;;10.20;4.05;;;11.90;99.90;;;;;;6043646;23;20142;-87
2022/09/26 09:51:10;;;;;;;9.07;3.40;;;11.90;99.90;;;;;;6020168;23;20014;-85
2022/09/26 09:53:47;;;;;;;10.80;3.90;;;11.90;99.90;;;;;;6044170;23;20015;-88
2022/09/26 09:56:29;;;;;;;9.95;4.03;;;11.90;99.90;;;;;;6044818;23;20010;-89
2022/09/26 09:59:25;;;;;;;12.02;3.97;;;11.90;99.90;;;;;;6044138;23;20758;-88
2022/09/26 10:02:17;;;;;;;11.40;4.15;;;12.00;99.90;;;;;;6067838;23;20034;-86
2022/09/26 10:04:51;;;;;;;11.75;3.45;;;12.00;99.90;;;;;;6066103;23;20052;-89
2022/09/26 10:07:17;;;;;;;9.25;3.72;;;12.00;99.90;;;;;;6044166;23;20022;-86
2022/09/26 10:09:43;;;;;;;9.75;3.90;;;12.00;99.90;;;;;;6020465;23;20018;-85
2022/09/26 10:12:15;;;;;;;10.90;3.55;;;12.00;99.90;;;;;;6044704;23;20483;-85
2022/09/26 10:15:20;;;;;;;10.38;3.60;;;12.00;99.90;;;;;;6042730;23;20343;-87
2022/09/26 10:17:59;;;;;;;11.77;3.97;;;12.00;99.90;;;;;;6068328;23;20447;-86
2022/09/26 10:20:38;;;;;;;8.50;3.65;;;12.00;99.90;;;;;;6042675;23;20010;-87
2022/09/26 10:23:18;;;;;;;9.90;3.83;;;11.90;99.90;;;;;;6043355;23;20014;-85
2022/09/26 10:25:49;;;;;;;11.65;4.10;;;11.90;99.90;;;;;;6043469;23;20018;-86
2022/09/26 10:28:29;;;;;;;9.60;4.05;;;11.90;99.90;;;;;;6039887;23;20364;-86
2022/09/26 10:31:02;;;;;;;10.15;4.30;;;12.00;99.90;;;;;;6042883;23;20014;-86
2022/09/26 10:33:33;;;;;;;11.32;4.25;;;12.00;99.90;;;;;;6042957;23;20018;-86
2022/09/26 10:36:10;;;;;;;9.88;4.00;;;12.00;99.90;;;;;;6067485;23;20018;-86
2022/09/26 10:41:45;;;;;;;12.32;4.78;;;12.00;99.90;;;;;;6052023;23;20089;-86
2022/09/26 10:44:35;;;;;;;9.43;4.47;;;12.00;99.90;;;;;;6068415;23;20010;-85
2022/09/26 10:47:08;;;;;;;10.85;4.68;;;12.10;99.90;;;;;;6042412;23;20329;-85
2022/09/26 10:49:39;;;;;;;11.80;4.63;;;12.00;99.90;;;;;;6043099;23;20455;-86
2022/09/26 10:52:10;;;;;;;10.57;4.65;;;12.10;99.90;;;;;;6065999;23;20018;-86
2022/09/26 10:54:44;;;;;;;11.70;4.20;;;12.10;99.90;;;;;;6042196;23;20014;-85
2022/09/26 10:57:24;;;;;;;11.70;4.68;;;12.10;99.90;;;;;;6068307;23;20046;-85
2022/09/26 10:59:51;;;;;;;10.27;4.30;;;12.10;99.90;;;;;;6044367;23;20018;-85
2022/09/26 11:02:21;;;;;;;12.80;4.60;;;12.10;99.90;;;;;;6065096;23;20547;-82
2022/09/26 11:07:41;;;;;;;10.70;4.60;;;12.10;99.90;;;;;;6067285;23;20042;-83
2022/09/26 11:10:11;;;;;;;14.85;5.45;;;12.10;99.90;;;;;;6067303;23;20053;-83
2022/09/26 11:12:40;;;;;;;11.40;4.72;;;12.10;99.90;;;;;;6043026;23;20105;-84
2022/09/26 11:15:13;;;;;;;9.27;4.50;;;12.10;99.90;;;;;;6042531;23;20229;-85
2022/09/26 11:17:43;;;;;;;10.35;4.90;;;12.10;99.90;;;;;;6066628;23;20025;-83
2022/09/26 11:20:33;;;;;;;9.20;4.90;;;12.10;99.90;;;;;;6044006;23;20026;-87
2022/09/26 11:23:44;;;;;;;12.40;4.75;;;12.10;99.90;;;;;;6066746;23;20053;-84
2022/09/26 11:26:20;;;;;;;9.23;4.43;;;12.00;99.90;;;;;;6065681;23;20598;-86
2022/09/26 11:28:54;;;;;;;12.10;4.30;;;12.00;99.90;;;;;;6068070;23;20073;-83
2022/09/26 11:31:27;;;;;;;10.38;4.45;;;12.00;99.90;;;;;;6066975;23;20025;-85
2022/09/26 11:33:57;;;;;;;10.05;4.47;;;12.00;99.90;;;;;;6043548;23;20018;-84
2022/09/26 11:36:38;;;;;;;10.43;4.50;;;11.90;99.90;;;;;;6067556;23;20021;-85
2022/09/26 11:39:31;;;;;;;9.10;4.05;;;11.90;99.90;;;;;;6043596;23;20065;-85
2022/09/26 11:42:16;;;;;;;9.65;3.85;;;11.90;99.90;;;;;;6044131;23;20019;-87
2022/09/26 11:45:12;;;;;;;9.98;3.85;;;12.00;99.90;;;;;;6043398;23;20085;-91
2022/09/26 11:48:14;;;;;;;10.25;4.25;;;12.00;99.90;;;;;;6063678;23;20375;-86
2022/09/26 11:51:00;;;;;;;8.93;3.95;;;12.00;99.90;;;;;;6043757;23;20459;-87
2022/09/26 11:53:35;;;;;;;10.85;3.90;;;12.00;99.90;;;;;;6042998;23;20328;-90
2022/09/26 11:56:19;;;;;;;8.35;3.80;;;12.00;99.90;;;;;;6044000;23;20010;-87
2022/09/26 11:59:23;;;;;;;10.15;4.20;;;12.00;99.90;;;;;;6067225;23;20011;-85
2022/09/26 12:02:21;;;;;;;9.73;4.10;;;12.00;99.90;;;;;;6067500;23;20014;-85
2022/09/26 12:05:01;;;;;;;10.70;3.75;;;12.00;99.90;;;;;;5994689;23;20443;-87
2022/09/26 12:07:39;;;;;;;9.63;4.03;;;12.00;99.90;;;;;;6043731;23;20086;-84
2022/09/26 12:10:30;;;;;;;7.97;3.65;;;12.00;99.90;;;;;;6066387;23;20455;-88
2022/09/26 12:13:11;;;;;;;8.73;3.85;;;12.00;99.90;;;;;;6067946;23;20073;-85
2022/09/26 12:15:54;;;;;;;9.48;3.53;;;12.10;99.90;;;;;;6041647;23;20113;-84
2022/09/26 12:18:24;;;;;;;;;;;12.10;99.90;;;;;;6043098;23;20451;-82
2022/09/26 12:21:19;;;;;;;7.93;3.50;;;12.10;99.90;;;;;;6067059;23;19984;-86
2022/09/26 12:24:01;;;;;;;9.50;4.00;;;12.10;99.90;;;;;;6042434;23;20048;-86
2022/09/26 12:26:52;;;;;;;10.38;3.85;;;12.20;99.90;;;;;;6066167;23;20027;-83
2022/09/26 12:29:55;;;;;;;7.78;3.47;;;12.30;99.90;;;;;;6047628;23;20476;-82
2022/09/26 12:32:35;;;;;;;9.38;3.72;;;12.20;99.90;;;;;;6066758;23;20088;-83
2022/09/26 12:35:19;;;;;;;7.72;3.22;;;12.20;99.90;;;;;;6042655;23;20470;-83
2022/09/26 12:38:07;;;;;;;7.75;3.75;;;12.20;99.90;;;;;;6042958;23;20352;-85
2022/09/26 12:40:52;;;;;;;9.00;3.38;;;12.20;99.90;;;;;;6045658;23;20389;-86
2022/09/26 12:43:24;;;;;;;7.80;3.30;;;12.20;99.90;;;;;;6069635;23;20052;-85
2022/09/26 12:46:24;;;;;;;8.18;3.28;;;12.20;99.90;;;;;;6043613;23;20046;-86
2022/09/26 12:48:53;;;;;;;8.32;3.70;;;12.20;99.90;;;;;;6044672;23;20073;-85
2022/09/26 12:51:27;;;;;;;8.10;3.30;;;12.30;99.90;;;;;;6066599;23;20014;-83
2022/09/26 12:54:04;;;;;;;9.57;3.72;;;12.30;99.90;;;;;;6044549;23;20069;-87
2022/09/26 12:56:47;;;;;;;8.13;3.70;;;12.40;99.90;;;;;;6043073;23;20066;-85
2022/09/26 12:59:38;;;;;;;9.20;3.38;;;12.40;99.90;;;;;;6044919;23;20069;-87
2022/09/26 13:02:18;;;;;;;9.30;3.70;;;12.50;99.90;;;;;;5972237;23;20046;-86
2022/09/26 13:05:08;;;;;;;9.35;3.35;;;12.50;99.90;;;;;;6043537;23;20014;-86
2022/09/26 13:07:48;;;;;;;8.68;3.30;;;12.50;99.90;;;;;;6066251;23;20500;-87
2022/09/26 13:10:16;;;;;;;8.32;3.25;;;12.50;99.90;;;;;;6042392;23;20014;-89
2022/09/26 13:13:10;;;;;;;8.38;3.42;;;12.50;99.90;;;;;;6043896;23;20022;-90
2022/09/26 13:16:03;;;;;;;8.98;3.10;;;12.50;99.90;;;;;;6065894;23;20024;-85
2022/09/26 13:18:43;;;;;;;8.93;3.45;;;12.50;99.90;;;;;;6043994;23;20470;-86
2022/09/26 13:21:25;;;;;;;8.00;3.15;;;12.50;99.90;;;;;;6066817;23;20025;-86
2022/09/26 13:23:59;;;;;;;8.05;3.17;;;12.60;99.90;;;;;;6045200;23;20443;-84
2022/09/26 13:26:41;;;;;;;7.10;2.88;;;12.60;99.90;;;;;;6043139;23;20085;-84
2022/09/26 13:29:15;;;;;;;7.60;3.10;;;12.70;99.90;;;;;;6042397;23;20045;-86
2022/09/26 13:31:54;;;;;;;7.05;3.00;;;12.70;99.90;;;;;;6069001;23;20535;-86
2022/09/26 13:34:30;;;;;;;7.63;3.08;;;12.70;99.90;;;;;;6043226;23;20080;-85
2022/09/26 13:36:58;;;;;;;8.43;2.95;;;12.80;99.90;;;;;;6043785;23;20010;-89
2022/09/26 13:39:41;;;;;;;5.78;2.47;;;12.90;99.90;;;;;;6044058;23;20014;-84
2022/09/26 13:42:19;;;;;;;8.10;2.88;;;12.90;99.90;;;;;;6065968;23;20034;-83
2022/09/26 13:45:07;;;;;;;7.80;2.80;;;13.00;99.90;;;;;;6067396;23;20022;-90
2022/09/26 13:48:06;;;;;;;7.90;2.75;;;12.90;99.90;;;;;;6067323;23;20474;-87
2022/09/26 13:50:54;;;;;;;8.07;2.67;;;13.00;99.90;;;;;;6044421;23;20029;-84
2022/09/26 13:53:56;;;;;;;6.47;2.50;;;13.00;99.90;;;;;;6022125;23;20093;-85
2022/09/26 13:56:29;;;;;;;6.80;2.50;;;13.10;99.90;;;;;;5948758;24;20379;-90
2022/09/26 13:59:24;;;;;;;;;;;13.10;99.90;;;;;;6027539;23;20016;-85
2022/09/26 14:02:15;;;;;;;6.43;2.45;;;13.10;99.90;;;;;;6041716;23;19948;-87
2022/09/26 14:04:42;;;;;;;6.38;2.50;;;13.10;99.90;;;;;;6041932;23;20041;-88
2022/09/26 14:09:22;;;;;;;6.82;2.60;;;13.10;99.90;;;;;;6042466;23;20014;-85
2022/09/26 14:10:09;;;;;;;6.78;2.45;;;13.10;99.90;;;;;;6065715;23;20029;-87
2022/09/26 14:13:03;;;;;;;7.15;2.33;;;13.10;99.90;;;;;;6066607;23;20014;-86
2022/09/26 14:15:56;;;;;;;6.15;2.47;;;13.20;99.90;;;;;;6041055;23;20039;-87
2022/09/26 14:18:51;;;;;;;7.25;2.55;;;13.20;99.90;;;;;;6038479;23;20065;-87
2022/09/26 14:21:38;;;;;;;7.25;2.60;;;13.20;99.90;;;;;;6044105;23;20018;-86
2022/09/26 14:24:19;;;;;;;6.85;2.40;;;13.10;99.90;;;;;;6091423;23;20018;-84
2022/09/26 14:26:55;;;;;;;6.72;2.65;;;13.10;99.90;;;;;;6043022;23;20130;-85